sensor_id;sensor_type;location;lat;lon;timestamp;pressure;altitude;pressure_sealevel;temperature;humidity
39954;BME280;25631;51.516;-0.470;2023-07-29T00:00:19;100342.50;;;16.99;41.42
39954;BME280;25631;51.516;-0.470;2023-07-29T00:02:56;100348.99;;;17.26;41.31
39954;BME280;25631;51.516;-0.470;2023-07-29T00:05:32;100347.53;;;16.77;41.33
39954;BME280;25631;51.516;-0.470;2023-07-29T00:08:09;100349.92;;;17.10;41.30
39954;BME280;25631;51.516;-0.470;2023-07-29T00:10:45;100350.35;;;17.53;41.33
39954;BME280;25631;51.516;-0.470;2023-07-29T00:13:22;100351.13;;;17.29;41.39
39954;BME280;25631;51.516;-0.470;2023-07-29T00:15:58;100345.71;;;17.33;41.43
39954;BME280;25631;51.516;-0.470;2023-07-29T00:18:34;100349.45;;;17.03;41.47
39954;BME280;25631;51.516;-0.470;2023-07-29T00:21:11;100352.87;;;17.46;41.30
39954;BME280;25631;51.516;-0.470;2023-07-29T00:23:48;100354.99;;;17.18;41.14
39954;BME280;25631;51.516;-0.470;2023-07-29T00:26:25;100359.45;;;17.25;41.13
39954;BME280;25631;51.516;-0.470;2023-07-29T00:29:01;100355.97;;;17.29;41.15
39954;BME280;25631;51.516;-0.470;2023-07-29T00:31:38;100352.50;;;17.26;41.11
39954;BME280;25631;51.516;-0.470;2023-07-29T00:34:14;100346.16;;;16.82;41.03
39954;BME280;25631;51.516;-0.470;2023-07-29T00:36:51;100347.56;;;17.14;41.03
39954;BME280;25631;51.516;-0.470;2023-07-29T00:39:27;100341.12;;;17.09;41.27
39954;BME280;25631;51.516;-0.470;2023-07-29T00:42:04;100343.22;;;17.03;41.06
39954;BME280;25631;51.516;-0.470;2023-07-29T00:44:41;100354.61;;;16.90;41.66
39954;BME280;25631;51.516;-0.470;2023-07-29T00:47:18;100352.87;;;16.74;41.61
39954;BME280;25631;51.516;-0.470;2023-07-29T00:49:55;100353.93;;;16.80;41.55
39954;BME280;25631;51.516;-0.470;2023-07-29T00:52:32;100360.59;;;16.71;42.03
39954;BME280;25631;51.516;-0.470;2023-07-29T00:55:09;100359.96;;;16.71;42.25
39954;BME280;25631;51.516;-0.470;2023-07-29T00:57:46;100360.25;;;16.94;42.35
39954;BME280;25631;51.516;-0.470;2023-07-29T01:00:22;100354.13;;;16.35;42.69
39954;BME280;25631;51.516;-0.470;2023-07-29T01:02:59;100348.28;;;16.70;42.41
39954;BME280;25631;51.516;-0.470;2023-07-29T01:05:43;100350.68;;;16.56;42.60
39954;BME280;25631;51.516;-0.470;2023-07-29T01:08:33;100348.93;;;16.22;43.00
39954;BME280;25631;51.516;-0.470;2023-07-29T01:11:23;100345.84;;;15.80;43.16
39954;BME280;25631;51.516;-0.470;2023-07-29T01:14:08;100342.21;;;16.20;43.01
39954;BME280;25631;51.516;-0.470;2023-07-29T01:16:51;100336.96;;;16.43;42.90
39954;BME280;25631;51.516;-0.470;2023-07-29T01:19:42;100345.28;;;16.40;42.87
39954;BME280;25631;51.516;-0.470;2023-07-29T01:22:24;100342.37;;;16.84;42.59
39954;BME280;25631;51.516;-0.470;2023-07-29T01:25:01;100335.50;;;16.38;42.69
39954;BME280;25631;51.516;-0.470;2023-07-29T01:27:38;100331.75;;;16.58;42.80
39954;BME280;25631;51.516;-0.470;2023-07-29T01:30:15;100325.46;;;16.47;42.68
39954;BME280;25631;51.516;-0.470;2023-07-29T01:32:54;100320.65;;;16.34;42.85
39954;BME280;25631;51.516;-0.470;2023-07-29T01:35:36;100318.48;;;16.76;42.55
39954;BME280;25631;51.516;-0.470;2023-07-29T01:38:17;100321.56;;;16.75;42.47
39954;BME280;25631;51.516;-0.470;2023-07-29T01:40:54;100325.58;;;16.62;42.33
39954;BME280;25631;51.516;-0.470;2023-07-29T01:43:33;100323.51;;;16.56;42.29
39954;BME280;25631;51.516;-0.470;2023-07-29T01:46:10;100321.42;;;16.65;42.05
39954;BME280;25631;51.516;-0.470;2023-07-29T01:48:47;100324.06;;;16.74;41.98
39954;BME280;25631;51.516;-0.470;2023-07-29T01:51:23;100325.23;;;16.89;41.91
39954;BME280;25631;51.516;-0.470;2023-07-29T01:54:00;100327.30;;;17.10;41.76
39954;BME280;25631;51.516;-0.470;2023-07-29T01:56:37;100330.01;;;16.98;41.67
39954;BME280;25631;51.516;-0.470;2023-07-29T01:59:13;100332.36;;;17.23;41.67
39954;BME280;25631;51.516;-0.470;2023-07-29T02:01:49;100334.65;;;17.10;41.68
39954;BME280;25631;51.516;-0.470;2023-07-29T02:04:26;100328.94;;;17.08;41.49
39954;BME280;25631;51.516;-0.470;2023-07-29T02:07:03;100326.64;;;16.96;41.44
39954;BME280;25631;51.516;-0.470;2023-07-29T02:09:39;100327.41;;;17.14;41.39
39954;BME280;25631;51.516;-0.470;2023-07-29T02:12:16;100326.58;;;16.85;41.47
39954;BME280;25631;51.516;-0.470;2023-07-29T02:14:52;100330.28;;;16.93;41.69
39954;BME280;25631;51.516;-0.470;2023-07-29T02:17:29;100333.86;;;17.04;41.83
39954;BME280;25631;51.516;-0.470;2023-07-29T02:20:06;100315.84;;;16.96;41.82
39954;BME280;25631;51.516;-0.470;2023-07-29T02:22:42;100315.69;;;17.10;41.96
39954;BME280;25631;51.516;-0.470;2023-07-29T02:25:19;100311.07;;;16.87;42.51
39954;BME280;25631;51.516;-0.470;2023-07-29T02:27:55;100315.29;;;16.67;42.52
39954;BME280;25631;51.516;-0.470;2023-07-29T02:30:32;100317.76;;;16.75;42.63
39954;BME280;25631;51.516;-0.470;2023-07-29T02:33:08;100321.84;;;16.65;42.75
39954;BME280;25631;51.516;-0.470;2023-07-29T02:35:45;100309.97;;;16.60;42.72
39954;BME280;25631;51.516;-0.470;2023-07-29T02:38:21;100314.55;;;16.33;43.03
39954;BME280;25631;51.516;-0.470;2023-07-29T02:40:57;100316.52;;;16.58;43.14
39954;BME280;25631;51.516;-0.470;2023-07-29T02:43:34;100317.35;;;16.54;43.12
39954;BME280;25631;51.516;-0.470;2023-07-29T02:46:10;100316.14;;;16.78;42.98
39954;BME280;25631;51.516;-0.470;2023-07-29T02:48:47;100315.14;;;16.69;43.16
39954;BME280;25631;51.516;-0.470;2023-07-29T02:51:23;100314.46;;;16.52;43.15
39954;BME280;25631;51.516;-0.470;2023-07-29T02:53:59;100308.92;;;16.49;43.29
39954;BME280;25631;51.516;-0.470;2023-07-29T02:56:36;100308.21;;;16.44;43.14
39954;BME280;25631;51.516;-0.470;2023-07-29T02:59:12;100313.79;;;16.60;43.27
39954;BME280;25631;51.516;-0.470;2023-07-29T03:01:49;100318.41;;;16.23;43.40
39954;BME280;25631;51.516;-0.470;2023-07-29T03:04:25;100314.45;;;16.08;43.30
39954;BME280;25631;51.516;-0.470;2023-07-29T03:07:02;100320.74;;;16.47;43.28
39954;BME280;25631;51.516;-0.470;2023-07-29T03:09:38;100314.20;;;16.45;43.33
39954;BME280;25631;51.516;-0.470;2023-07-29T03:12:15;100309.83;;;16.42;43.37
39954;BME280;25631;51.516;-0.470;2023-07-29T03:14:51;100306.75;;;16.33;43.41
39954;BME280;25631;51.516;-0.470;2023-07-29T03:17:28;100304.98;;;16.64;43.31
39954;BME280;25631;51.516;-0.470;2023-07-29T03:20:05;100304.03;;;16.41;43.29
39954;BME280;25631;51.516;-0.470;2023-07-29T03:22:42;100302.44;;;16.77;43.19
39954;BME280;25631;51.516;-0.470;2023-07-29T03:25:18;100307.94;;;17.02;43.26
39954;BME280;25631;51.516;-0.470;2023-07-29T03:27:55;100312.25;;;16.42;43.33
39954;BME280;25631;51.516;-0.470;2023-07-29T03:30:31;100312.93;;;16.72;43.34
39954;BME280;25631;51.516;-0.470;2023-07-29T03:33:08;100309.96;;;16.38;43.40
39954;BME280;25631;51.516;-0.470;2023-07-29T03:35:44;100306.28;;;16.53;43.34
39954;BME280;25631;51.516;-0.470;2023-07-29T03:38:21;100302.70;;;16.39;43.52
39954;BME280;25631;51.516;-0.470;2023-07-29T03:40:57;100305.41;;;16.42;43.56
39954;BME280;25631;51.516;-0.470;2023-07-29T03:43:34;100310.81;;;16.25;43.37
39954;BME280;25631;51.516;-0.470;2023-07-29T03:46:10;100307.57;;;16.52;43.22
39954;BME280;25631;51.516;-0.470;2023-07-29T03:48:47;100310.87;;;16.42;43.22
39954;BME280;25631;51.516;-0.470;2023-07-29T03:51:24;100314.98;;;16.75;43.31
39954;BME280;25631;51.516;-0.470;2023-07-29T03:54:00;100319.06;;;16.75;43.39
39954;BME280;25631;51.516;-0.470;2023-07-29T03:56:36;100319.45;;;16.54;43.55
39954;BME280;25631;51.516;-0.470;2023-07-29T03:59:13;100319.96;;;16.30;43.51
39954;BME280;25631;51.516;-0.470;2023-07-29T04:01:49;100323.31;;;16.31;43.65
39954;BME280;25631;51.516;-0.470;2023-07-29T04:04:26;100316.45;;;16.32;43.65
39954;BME280;25631;51.516;-0.470;2023-07-29T04:07:03;100313.31;;;16.24;43.60
39954;BME280;25631;51.516;-0.470;2023-07-29T04:09:40;100314.42;;;16.59;43.70
39954;BME280;25631;51.516;-0.470;2023-07-29T04:12:16;100315.14;;;16.46;43.75
39954;BME280;25631;51.516;-0.470;2023-07-29T04:14:53;100309.32;;;16.48;43.91
39954;BME280;25631;51.516;-0.470;2023-07-29T04:17:29;100311.85;;;16.38;43.88
39954;BME280;25631;51.516;-0.470;2023-07-29T04:20:06;100314.05;;;16.39;43.82
39954;BME280;25631;51.516;-0.470;2023-07-29T04:22:43;100313.13;;;16.51;43.78
39954;BME280;25631;51.516;-0.470;2023-07-29T04:25:19;100294.57;;;16.69;43.61
39954;BME280;25631;51.516;-0.470;2023-07-29T04:27:55;100295.33;;;16.68;43.70
39954;BME280;25631;51.516;-0.470;2023-07-29T04:30:32;100316.22;;;16.40;43.73
39954;BME280;25631;51.516;-0.470;2023-07-29T04:33:08;100317.27;;;16.28;43.63
39954;BME280;25631;51.516;-0.470;2023-07-29T04:35:45;100317.20;;;16.22;43.69
39954;BME280;25631;51.516;-0.470;2023-07-29T04:38:22;100321.62;;;16.42;43.51
39954;BME280;25631;51.516;-0.470;2023-07-29T04:40:58;100321.37;;;16.66;43.54
39954;BME280;25631;51.516;-0.470;2023-07-29T04:43:34;100323.55;;;16.43;43.61
39954;BME280;25631;51.516;-0.470;2023-07-29T04:46:11;100325.22;;;16.60;43.72
39954;BME280;25631;51.516;-0.470;2023-07-29T04:48:47;100323.36;;;16.61;43.60
39954;BME280;25631;51.516;-0.470;2023-07-29T04:51:24;100319.76;;;16.58;43.70
39954;BME280;25631;51.516;-0.470;2023-07-29T04:54:01;100318.70;;;16.56;43.66
39954;BME280;25631;51.516;-0.470;2023-07-29T04:56:37;100321.42;;;16.44;43.65
39954;BME280;25631;51.516;-0.470;2023-07-29T04:59:14;100318.65;;;16.50;43.69
39954;BME280;25631;51.516;-0.470;2023-07-29T05:01:50;100309.99;;;16.61;43.46
39954;BME280;25631;51.516;-0.470;2023-07-29T05:04:27;100304.57;;;15.55;43.42
39954;BME280;25631;51.516;-0.470;2023-07-29T05:07:04;100307.70;;;16.87;43.25
39954;BME280;25631;51.516;-0.470;2023-07-29T05:09:40;100310.64;;;16.57;43.46
39954;BME280;25631;51.516;-0.470;2023-07-29T05:12:16;100303.54;;;16.84;43.41
39954;BME280;25631;51.516;-0.470;2023-07-29T05:14:53;100299.95;;;16.54;43.45
39954;BME280;25631;51.516;-0.470;2023-07-29T05:17:29;100304.80;;;16.69;43.43
39954;BME280;25631;51.516;-0.470;2023-07-29T05:20:07;100318.67;;;16.47;43.59
39954;BME280;25631;51.516;-0.470;2023-07-29T05:22:44;100318.42;;;16.91;43.69
39954;BME280;25631;51.516;-0.470;2023-07-29T05:25:20;100322.64;;;16.08;43.76
39954;BME280;25631;51.516;-0.470;2023-07-29T05:27:57;100329.03;;;16.43;43.78
39954;BME280;25631;51.516;-0.470;2023-07-29T05:30:34;100331.48;;;16.64;43.73
39954;BME280;25631;51.516;-0.470;2023-07-29T05:33:10;100331.02;;;16.39;43.90
39954;BME280;25631;51.516;-0.470;2023-07-29T05:35:47;100323.09;;;16.69;44.02
39954;BME280;25631;51.516;-0.470;2023-07-29T05:38:23;100325.66;;;16.57;44.17
39954;BME280;25631;51.516;-0.470;2023-07-29T05:40:59;100325.01;;;16.20;44.33
39954;BME280;25631;51.516;-0.470;2023-07-29T05:43:37;100327.20;;;16.47;44.38
39954;BME280;25631;51.516;-0.470;2023-07-29T05:46:14;100328.88;;;15.77;44.40
39954;BME280;25631;51.516;-0.470;2023-07-29T05:48:50;100327.76;;;16.65;43.93
39954;BME280;25631;51.516;-0.470;2023-07-29T05:51:28;100327.18;;;16.60;43.78
39954;BME280;25631;51.516;-0.470;2023-07-29T05:54:04;100324.65;;;17.04;43.70
39954;BME280;25631;51.516;-0.470;2023-07-29T05:56:41;100324.36;;;17.17;43.55
39954;BME280;25631;51.516;-0.470;2023-07-29T05:59:22;100330.30;;;17.09;43.43
39954;BME280;25631;51.516;-0.470;2023-07-29T06:01:58;100327.38;;;17.05;43.30
39954;BME280;25631;51.516;-0.470;2023-07-29T06:04:35;100322.24;;;16.93;43.39
39954;BME280;25631;51.516;-0.470;2023-07-29T06:07:11;100322.10;;;16.67;43.35
39954;BME280;25631;51.516;-0.470;2023-07-29T06:09:48;100323.38;;;16.76;43.39
39954;BME280;25631;51.516;-0.470;2023-07-29T06:12:25;100324.54;;;16.96;43.38
39954;BME280;25631;51.516;-0.470;2023-07-29T06:15:02;100327.99;;;17.09;43.35
39954;BME280;25631;51.516;-0.470;2023-07-29T06:17:38;100328.01;;;16.95;43.45
39954;BME280;25631;51.516;-0.470;2023-07-29T06:20:15;100329.92;;;17.00;43.43
39954;BME280;25631;51.516;-0.470;2023-07-29T06:22:51;100331.20;;;17.05;43.44
39954;BME280;25631;51.516;-0.470;2023-07-29T06:25:28;100328.26;;;16.59;43.43
39954;BME280;25631;51.516;-0.470;2023-07-29T06:28:05;100326.92;;;16.70;43.25
39954;BME280;25631;51.516;-0.470;2023-07-29T06:30:41;100328.67;;;16.48;43.24
39954;BME280;25631;51.516;-0.470;2023-07-29T06:33:17;100333.10;;;16.64;43.37
39954;BME280;25631;51.516;-0.470;2023-07-29T06:35:54;100333.82;;;16.42;43.28
39954;BME280;25631;51.516;-0.470;2023-07-29T06:38:31;100338.01;;;16.55;43.32
39954;BME280;25631;51.516;-0.470;2023-07-29T06:41:07;100337.09;;;16.69;43.22
39954;BME280;25631;51.516;-0.470;2023-07-29T06:43:44;100337.67;;;16.75;43.27
39954;BME280;25631;51.516;-0.470;2023-07-29T06:46:20;100334.33;;;16.75;43.24
39954;BME280;25631;51.516;-0.470;2023-07-29T06:48:57;100332.25;;;16.95;43.19
39954;BME280;25631;51.516;-0.470;2023-07-29T06:51:33;100332.99;;;16.80;43.24
39954;BME280;25631;51.516;-0.470;2023-07-29T06:54:10;100336.47;;;16.78;43.32
39954;BME280;25631;51.516;-0.470;2023-07-29T06:56:46;100338.63;;;16.90;43.31
39954;BME280;25631;51.516;-0.470;2023-07-29T06:59:23;100338.99;;;16.83;43.34
39954;BME280;25631;51.516;-0.470;2023-07-29T07:01:59;100339.60;;;17.10;43.24
39954;BME280;25631;51.516;-0.470;2023-07-29T07:04:36;100340.00;;;16.88;43.05
39954;BME280;25631;51.516;-0.470;2023-07-29T07:07:12;100339.45;;;17.00;43.03
39954;BME280;25631;51.516;-0.470;2023-07-29T07:09:49;100339.24;;;16.97;42.74
39954;BME280;25631;51.516;-0.470;2023-07-29T07:12:25;100339.59;;;16.88;42.77
39954;BME280;25631;51.516;-0.470;2023-07-29T07:15:02;100336.73;;;17.14;42.80
39954;BME280;25631;51.516;-0.470;2023-07-29T07:17:38;100336.33;;;16.83;42.54
39954;BME280;25631;51.516;-0.470;2023-07-29T07:20:15;100337.38;;;16.98;42.56
39954;BME280;25631;51.516;-0.470;2023-07-29T07:22:52;100341.07;;;17.10;42.51
39954;BME280;25631;51.516;-0.470;2023-07-29T07:25:28;100339.96;;;17.24;42.34
39954;BME280;25631;51.516;-0.470;2023-07-29T07:28:05;100340.10;;;17.45;42.16
39954;BME280;25631;51.516;-0.470;2023-07-29T07:30:42;100337.79;;;17.45;41.81
39954;BME280;25631;51.516;-0.470;2023-07-29T07:33:18;100336.41;;;16.98;41.84
39954;BME280;25631;51.516;-0.470;2023-07-29T07:35:55;100341.94;;;17.02;41.79
39954;BME280;25631;51.516;-0.470;2023-07-29T07:38:31;100344.06;;;17.22;41.61
39954;BME280;25631;51.516;-0.470;2023-07-29T07:41:08;100341.65;;;17.50;41.46
39954;BME280;25631;51.516;-0.470;2023-07-29T07:43:44;100339.85;;;17.49;41.65
39954;BME280;25631;51.516;-0.470;2023-07-29T07:46:21;100333.86;;;17.59;41.60
39954;BME280;25631;51.516;-0.470;2023-07-29T07:48:57;100325.60;;;17.53;41.65
39954;BME280;25631;51.516;-0.470;2023-07-29T07:51:33;100327.61;;;17.21;41.38
39954;BME280;25631;51.516;-0.470;2023-07-29T07:54:10;100323.20;;;17.05;41.32
39954;BME280;25631;51.516;-0.470;2023-07-29T07:56:46;100325.37;;;17.08;41.79
39954;BME280;25631;51.516;-0.470;2023-07-29T07:59:22;100322.79;;;17.63;41.66
39954;BME280;25631;51.516;-0.470;2023-07-29T08:01:59;100326.23;;;17.90;41.28
39954;BME280;25631;51.516;-0.470;2023-07-29T08:04:35;100328.56;;;17.87;40.84
39954;BME280;25631;51.516;-0.470;2023-07-29T08:07:12;100325.63;;;18.08;40.33
39954;BME280;25631;51.516;-0.470;2023-07-29T08:09:48;100328.79;;;17.85;39.92
39954;BME280;25631;51.516;-0.470;2023-07-29T08:12:25;100324.84;;;18.29;39.69
39954;BME280;25631;51.516;-0.470;2023-07-29T08:15:01;100325.49;;;18.02;39.45
39954;BME280;25631;51.516;-0.470;2023-07-29T08:17:38;100326.94;;;17.84;39.69
39954;BME280;25631;51.516;-0.470;2023-07-29T08:20:14;100332.45;;;17.93;39.71
39954;BME280;25631;51.516;-0.470;2023-07-29T08:22:51;100332.23;;;18.22;39.64
39954;BME280;25631;51.516;-0.470;2023-07-29T08:25:28;100334.69;;;18.07;39.14
39954;BME280;25631;51.516;-0.470;2023-07-29T08:28:05;100331.13;;;18.09;38.87
39954;BME280;25631;51.516;-0.470;2023-07-29T08:30:41;100333.01;;;18.20;38.28
39954;BME280;25631;51.516;-0.470;2023-07-29T08:33:18;100324.17;;;18.28;38.13
39954;BME280;25631;51.516;-0.470;2023-07-29T08:35:54;100328.67;;;18.58;38.37
39954;BME280;25631;51.516;-0.470;2023-07-29T08:38:31;100325.97;;;18.30;37.99
39954;BME280;25631;51.516;-0.470;2023-07-29T08:41:13;100328.22;;;18.47;37.74
39954;BME280;25631;51.516;-0.470;2023-07-29T08:43:54;100322.11;;;18.49;37.64
39954;BME280;25631;51.516;-0.470;2023-07-29T08:46:33;100318.80;;;18.53;37.74
39954;BME280;25631;51.516;-0.470;2023-07-29T08:49:15;100319.53;;;18.48;37.41
39954;BME280;25631;51.516;-0.470;2023-07-29T08:51:53;100320.09;;;18.94;37.25
39954;BME280;25631;51.516;-0.470;2023-07-29T08:54:30;100317.87;;;18.78;36.80
39954;BME280;25631;51.516;-0.470;2023-07-29T08:57:07;100321.66;;;18.88;36.85
39954;BME280;25631;51.516;-0.470;2023-07-29T08:59:45;100324.18;;;18.75;36.74
39954;BME280;25631;51.516;-0.470;2023-07-29T09:02:22;100320.07;;;19.05;36.17
39954;BME280;25631;51.516;-0.470;2023-07-29T09:04:59;100320.33;;;19.19;35.70
39954;BME280;25631;51.516;-0.470;2023-07-29T09:07:36;100325.88;;;19.50;35.54
39954;BME280;25631;51.516;-0.470;2023-07-29T09:10:13;100326.16;;;19.53;35.64
39954;BME280;25631;51.516;-0.470;2023-07-29T09:12:50;100330.46;;;19.29;35.69
39954;BME280;25631;51.516;-0.470;2023-07-29T09:15:28;100328.76;;;19.57;35.19
39954;BME280;25631;51.516;-0.470;2023-07-29T09:18:09;100328.67;;;19.15;35.15
39954;BME280;25631;51.516;-0.470;2023-07-29T09:20:47;100326.35;;;19.64;35.29
39954;BME280;25631;51.516;-0.470;2023-07-29T09:23:24;100334.32;;;19.63;35.41
39954;BME280;25631;51.516;-0.470;2023-07-29T09:26:02;100339.11;;;19.45;35.22
39954;BME280;25631;51.516;-0.470;2023-07-29T09:28:40;100337.03;;;19.22;34.77
39954;BME280;25631;51.516;-0.470;2023-07-29T09:31:19;100332.73;;;19.55;34.81
39954;BME280;25631;51.516;-0.470;2023-07-29T09:33:57;100340.34;;;18.72;34.38
39954;BME280;25631;51.516;-0.470;2023-07-29T09:36:34;100332.27;;;18.82;34.53
39954;BME280;25631;51.516;-0.470;2023-07-29T09:39:12;100329.15;;;18.90;34.55
39954;BME280;25631;51.516;-0.470;2023-07-29T09:41:48;100328.26;;;18.70;34.40
39954;BME280;25631;51.516;-0.470;2023-07-29T09:44:25;100330.40;;;18.92;34.50
39954;BME280;25631;51.516;-0.470;2023-07-29T09:47:02;100335.08;;;19.01;33.53
39954;BME280;25631;51.516;-0.470;2023-07-29T09:49:38;100331.62;;;18.92;33.69
39954;BME280;25631;51.516;-0.470;2023-07-29T09:52:16;100332.76;;;18.88;33.72
39954;BME280;25631;51.516;-0.470;2023-07-29T09:54:56;100335.77;;;18.84;33.89
39954;BME280;25631;51.516;-0.470;2023-07-29T09:57:32;100333.30;;;19.18;33.33
39954;BME280;25631;51.516;-0.470;2023-07-29T10:00:11;100328.67;;;18.81;33.34
39954;BME280;25631;51.516;-0.470;2023-07-29T10:02:48;100323.58;;;19.16;32.92
39954;BME280;25631;51.516;-0.470;2023-07-29T10:05:26;100326.23;;;19.12;32.77
39954;BME280;25631;51.516;-0.470;2023-07-29T10:08:03;100325.75;;;19.44;32.85
39954;BME280;25631;51.516;-0.470;2023-07-29T10:10:41;100325.48;;;19.50;32.46
39954;BME280;25631;51.516;-0.470;2023-07-29T10:13:18;100326.33;;;19.19;32.20
39954;BME280;25631;51.516;-0.470;2023-07-29T10:15:55;100330.23;;;19.32;32.26
39954;BME280;25631;51.516;-0.470;2023-07-29T10:18:33;100320.56;;;19.54;32.29
39954;BME280;25631;51.516;-0.470;2023-07-29T10:21:12;100330.11;;;19.40;32.06
39954;BME280;25631;51.516;-0.470;2023-07-29T10:23:53;100325.64;;;20.00;31.73
39954;BME280;25631;51.516;-0.470;2023-07-29T10:26:33;100330.59;;;19.88;32.13
39954;BME280;25631;51.516;-0.470;2023-07-29T10:29:12;100339.64;;;19.75;32.08
39954;BME280;25631;51.516;-0.470;2023-07-29T10:31:51;100342.27;;;20.50;31.63
39954;BME280;25631;51.516;-0.470;2023-07-29T10:34:30;100346.30;;;19.86;31.59
39954;BME280;25631;51.516;-0.470;2023-07-29T10:37:08;100346.29;;;20.11;31.64
39954;BME280;25631;51.516;-0.470;2023-07-29T10:39:52;100343.61;;;19.72;31.79
39954;BME280;25631;51.516;-0.470;2023-07-29T10:42:29;100345.45;;;19.51;31.85
39954;BME280;25631;51.516;-0.470;2023-07-29T10:45:22;100342.91;;;20.05;32.05
39954;BME280;25631;51.516;-0.470;2023-07-29T10:47:58;100342.24;;;20.13;31.89
39954;BME280;25631;51.516;-0.470;2023-07-29T10:50:35;100341.53;;;19.89;30.41
39954;BME280;25631;51.516;-0.470;2023-07-29T10:53:11;100348.71;;;19.89;30.07
39954;BME280;25631;51.516;-0.470;2023-07-29T10:55:48;100352.51;;;19.98;29.70
39954;BME280;25631;51.516;-0.470;2023-07-29T10:58:29;100349.16;;;20.16;29.88
39954;BME280;25631;51.516;-0.470;2023-07-29T11:01:13;100357.26;;;19.86;29.89
39954;BME280;25631;51.516;-0.470;2023-07-29T11:04:21;100355.35;;;19.91;29.99
39954;BME280;25631;51.516;-0.470;2023-07-29T11:07:30;100347.95;;;19.71;29.93
39954;BME280;25631;51.516;-0.470;2023-07-29T11:10:07;100347.84;;;20.29;30.68
39954;BME280;25631;51.516;-0.470;2023-07-29T11:12:45;100346.24;;;19.96;30.25
39954;BME280;25631;51.516;-0.470;2023-07-29T11:15:23;100345.94;;;20.31;30.02
39954;BME280;25631;51.516;-0.470;2023-07-29T11:18:01;100345.41;;;20.13;30.18
39954;BME280;25631;51.516;-0.470;2023-07-29T11:20:38;100341.19;;;20.15;30.94
39954;BME280;25631;51.516;-0.470;2023-07-29T11:23:15;100337.72;;;20.05;30.12
39954;BME280;25631;51.516;-0.470;2023-07-29T11:25:52;100336.94;;;19.84;30.29
39954;BME280;25631;51.516;-0.470;2023-07-29T11:28:29;100338.64;;;20.27;30.58
39954;BME280;25631;51.516;-0.470;2023-07-29T11:31:05;100342.27;;;20.46;30.14
39954;BME280;25631;51.516;-0.470;2023-07-29T11:33:41;100338.45;;;20.76;29.74
39954;BME280;25631;51.516;-0.470;2023-07-29T11:36:18;100339.76;;;20.97;29.32
39954;BME280;25631;51.516;-0.470;2023-07-29T11:38:55;100346.01;;;21.13;29.15
39954;BME280;25631;51.516;-0.470;2023-07-29T11:41:33;100350.61;;;21.15;28.41
39954;BME280;25631;51.516;-0.470;2023-07-29T11:44:16;100346.11;;;21.24;28.27
39954;BME280;25631;51.516;-0.470;2023-07-29T11:46:54;100343.55;;;20.96;28.86
39954;BME280;25631;51.516;-0.470;2023-07-29T11:49:30;100351.82;;;21.14;29.04
39954;BME280;25631;51.516;-0.470;2023-07-29T11:52:08;100353.14;;;21.34;28.71
39954;BME280;25631;51.516;-0.470;2023-07-29T11:54:46;100350.23;;;21.55;28.37
39954;BME280;25631;51.516;-0.470;2023-07-29T11:57:23;100353.40;;;21.50;28.20
39954;BME280;25631;51.516;-0.470;2023-07-29T12:00:01;100355.31;;;21.06;28.77
39954;BME280;25631;51.516;-0.470;2023-07-29T12:02:39;100353.60;;;20.92;28.13
39954;BME280;25631;51.516;-0.470;2023-07-29T12:05:17;100355.34;;;21.04;28.12
39954;BME280;25631;51.516;-0.470;2023-07-29T12:07:55;100356.99;;;21.23;28.00
39954;BME280;25631;51.516;-0.470;2023-07-29T12:10:31;100365.80;;;20.93;27.84
39954;BME280;25631;51.516;-0.470;2023-07-29T12:13:09;100357.81;;;21.24;28.24
39954;BME280;25631;51.516;-0.470;2023-07-29T12:15:46;100361.86;;;21.28;28.35
39954;BME280;25631;51.516;-0.470;2023-07-29T12:18:29;100363.40;;;21.28;27.55
39954;BME280;25631;51.516;-0.470;2023-07-29T12:21:06;100353.27;;;21.49;26.92
39954;BME280;25631;51.516;-0.470;2023-07-29T12:23:43;100358.20;;;21.69;27.08
39954;BME280;25631;51.516;-0.470;2023-07-29T12:26:19;100361.40;;;21.44;26.94
39954;BME280;25631;51.516;-0.470;2023-07-29T12:28:56;100358.54;;;21.52;26.87
39954;BME280;25631;51.516;-0.470;2023-07-29T12:31:32;100353.90;;;21.92;26.84
39954;BME280;25631;51.516;-0.470;2023-07-29T12:34:18;100358.33;;;22.06;27.14
39954;BME280;25631;51.516;-0.470;2023-07-29T12:36:56;100360.55;;;21.88;26.85
39954;BME280;25631;51.516;-0.470;2023-07-29T12:39:34;100363.15;;;22.26;27.20
39954;BME280;25631;51.516;-0.470;2023-07-29T12:42:11;100364.55;;;22.35;27.08
39954;BME280;25631;51.516;-0.470;2023-07-29T12:44:47;100365.88;;;22.07;27.10
39954;BME280;25631;51.516;-0.470;2023-07-29T12:47:24;100367.61;;;22.26;27.04
39954;BME280;25631;51.516;-0.470;2023-07-29T12:50:00;100371.68;;;22.39;26.86
39954;BME280;25631;51.516;-0.470;2023-07-29T12:52:36;100371.92;;;22.13;26.85
39954;BME280;25631;51.516;-0.470;2023-07-29T12:55:13;100375.50;;;22.53;26.69
39954;BME280;25631;51.516;-0.470;2023-07-29T12:57:50;100370.39;;;22.24;26.86
39954;BME280;25631;51.516;-0.470;2023-07-29T13:00:27;100369.52;;;22.22;27.08
39954;BME280;25631;51.516;-0.470;2023-07-29T13:03:03;100371.73;;;21.75;27.38
39954;BME280;25631;51.516;-0.470;2023-07-29T13:05:40;100368.29;;;21.86;27.47
39954;BME280;25631;51.516;-0.470;2023-07-29T13:08:17;100369.13;;;21.61;27.44
39954;BME280;25631;51.516;-0.470;2023-07-29T13:10:54;100367.39;;;21.80;27.71
39954;BME280;25631;51.516;-0.470;2023-07-29T13:13:31;100367.42;;;22.01;27.67
39954;BME280;25631;51.516;-0.470;2023-07-29T13:16:08;100370.60;;;21.95;27.38
39954;BME280;25631;51.516;-0.470;2023-07-29T13:18:44;100366.35;;;22.05;27.47
39954;BME280;25631;51.516;-0.470;2023-07-29T13:21:21;100367.12;;;21.91;27.28
39954;BME280;25631;51.516;-0.470;2023-07-29T13:23:57;100368.21;;;21.75;27.27
39954;BME280;25631;51.516;-0.470;2023-07-29T13:26:33;100364.71;;;21.75;27.34
39954;BME280;25631;51.516;-0.470;2023-07-29T13:29:10;100362.08;;;21.95;27.70
39954;BME280;25631;51.516;-0.470;2023-07-29T13:31:47;100360.24;;;21.98;28.02